sensor_id;sensor_type;location;lat;lon;timestamp;temperature;humidity
59973;DHT22;55298;-36.624;-64.282;2023-01-23T00:01:42;29.20;41.10
59973;DHT22;55298;-36.624;-64.282;2023-01-23T00:04:18;29.20;40.90
59973;DHT22;55298;-36.624;-64.282;2023-01-23T00:06:46;29.20;41.30
59973;DHT22;55298;-36.624;-64.282;2023-01-23T00:09:16;29.10;41.30
59973;DHT22;55298;-36.624;-64.282;2023-01-23T00:11:44;29.10;41.40
59973;DHT22;55298;-36.624;-64.282;2023-01-23T00:14:12;29.10;41.30
59973;DHT22;55298;-36.624;-64.282;2023-01-23T00:16:39;29.10;41.10
59973;DHT22;55298;-36.624;-64.282;2023-01-23T00:19:09;29.00;41.10
59973;DHT22;55298;-36.624;-64.282;2023-01-23T00:21:39;29.00;41.00
59973;DHT22;55298;-36.624;-64.282;2023-01-23T00:24:10;29.00;40.80
59973;DHT22;55298;-36.624;-64.282;2023-01-23T00:26:38;29.00;40.90
59973;DHT22;55298;-36.624;-64.282;2023-01-23T00:29:09;29.00;40.90
59973;DHT22;55298;-36.624;-64.282;2023-01-23T00:31:38;29.00;40.60
59973;DHT22;55298;-36.624;-64.282;2023-01-23T00:34:10;28.90;40.70
59973;DHT22;55298;-36.624;-64.282;2023-01-23T00:36:40;28.80;40.60
59973;DHT22;55298;-36.624;-64.282;2023-01-23T00:39:15;28.80;40.60
59973;DHT22;55298;-36.624;-64.282;2023-01-23T00:41:47;28.80;40.60
59973;DHT22;55298;-36.624;-64.282;2023-01-23T00:44:16;28.80;40.70
59973;DHT22;55298;-36.624;-64.282;2023-01-23T00:46:46;28.80;40.80
59973;DHT22;55298;-36.624;-64.282;2023-01-23T00:49:14;28.70;40.60
59973;DHT22;55298;-36.624;-64.282;2023-01-23T00:51:45;28.70;40.80
59973;DHT22;55298;-36.624;-64.282;2023-01-23T00:54:16;28.70;41.00
59973;DHT22;55298;-36.624;-64.282;2023-01-23T00:56:47;28.70;41.10
59973;DHT22;55298;-36.624;-64.282;2023-01-23T00:59:15;28.60;41.30
59973;DHT22;55298;-36.624;-64.282;2023-01-23T01:01:45;28.60;41.50
59973;DHT22;55298;-36.624;-64.282;2023-01-23T01:04:12;28.60;41.90
59973;DHT22;55298;-36.624;-64.282;2023-01-23T01:06:41;28.60;42.10
59973;DHT22;55298;-36.624;-64.282;2023-01-23T01:09:09;28.60;42.40
59973;DHT22;55298;-36.624;-64.282;2023-01-23T01:11:37;28.50;42.90
59973;DHT22;55298;-36.624;-64.282;2023-01-23T01:14:05;28.40;43.30
59973;DHT22;55298;-36.624;-64.282;2023-01-23T01:16:32;28.40;43.40
59973;DHT22;55298;-36.624;-64.282;2023-01-23T01:19:03;28.20;43.60
59973;DHT22;55298;-36.624;-64.282;2023-01-23T01:21:30;28.30;43.50
59973;DHT22;55298;-36.624;-64.282;2023-01-23T01:23:59;28.20;44.00
59973;DHT22;55298;-36.624;-64.282;2023-01-23T01:26:28;28.10;44.10
59973;DHT22;55298;-36.624;-64.282;2023-01-23T01:28:55;28.10;44.50
59973;DHT22;55298;-36.624;-64.282;2023-01-23T01:31:24;28.00;44.50
59973;DHT22;55298;-36.624;-64.282;2023-01-23T01:33:52;28.00;44.90
59973;DHT22;55298;-36.624;-64.282;2023-01-23T01:36:21;27.90;45.10
59973;DHT22;55298;-36.624;-64.282;2023-01-23T01:38:51;27.90;45.20
59973;DHT22;55298;-36.624;-64.282;2023-01-23T01:41:20;27.80;45.10
59973;DHT22;55298;-36.624;-64.282;2023-01-23T01:43:48;27.80;45.20
59973;DHT22;55298;-36.624;-64.282;2023-01-23T01:46:23;27.70;45.10
59973;DHT22;55298;-36.624;-64.282;2023-01-23T01:49:03;27.70;44.30
59973;DHT22;55298;-36.624;-64.282;2023-01-23T01:51:37;27.70;45.00
59973;DHT22;55298;-36.624;-64.282;2023-01-23T01:54:19;27.70;45.10
59973;DHT22;55298;-36.624;-64.282;2023-01-23T01:56:52;27.60;45.30
59973;DHT22;55298;-36.624;-64.282;2023-01-23T01:59:24;27.60;45.40
59973;DHT22;55298;-36.624;-64.282;2023-01-23T02:01:57;27.60;45.60
59973;DHT22;55298;-36.624;-64.282;2023-01-23T02:04:34;27.60;45.90
59973;DHT22;55298;-36.624;-64.282;2023-01-23T02:07:08;27.50;45.70
59973;DHT22;55298;-36.624;-64.282;2023-01-23T02:09:39;27.50;46.40
59973;DHT22;55298;-36.624;-64.282;2023-01-23T02:12:08;27.50;45.90
59973;DHT22;55298;-36.624;-64.282;2023-01-23T02:14:36;27.50;45.80
59973;DHT22;55298;-36.624;-64.282;2023-01-23T02:17:04;27.50;45.60
59973;DHT22;55298;-36.624;-64.282;2023-01-23T02:19:57;27.40;46.60
59973;DHT22;55298;-36.624;-64.282;2023-01-23T02:22:49;27.40;47.40
59973;DHT22;55298;-36.624;-64.282;2023-01-23T02:25:35;27.30;47.40
59973;DHT22;55298;-36.624;-64.282;2023-01-23T02:28:04;27.30;48.00
59973;DHT22;55298;-36.624;-64.282;2023-01-23T02:30:33;27.20;48.20
59973;DHT22;55298;-36.624;-64.282;2023-01-23T02:33:10;27.10;49.00
59973;DHT22;55298;-36.624;-64.282;2023-01-23T02:35:40;27.00;49.50
59973;DHT22;55298;-36.624;-64.282;2023-01-23T02:38:09;26.90;50.90
59973;DHT22;55298;-36.624;-64.282;2023-01-23T02:40:40;26.70;52.30
59973;DHT22;55298;-36.624;-64.282;2023-01-23T02:43:12;26.50;53.50
59973;DHT22;55298;-36.624;-64.282;2023-01-23T02:45:41;26.30;53.00
59973;DHT22;55298;-36.624;-64.282;2023-01-23T02:48:10;26.20;53.10
59973;DHT22;55298;-36.624;-64.282;2023-01-23T02:50:38;26.10;52.80
59973;DHT22;55298;-36.624;-64.282;2023-01-23T02:53:07;26.10;53.10
59973;DHT22;55298;-36.624;-64.282;2023-01-23T02:55:35;26.00;53.70
59973;DHT22;55298;-36.624;-64.282;2023-01-23T02:58:08;25.90;54.10
59973;DHT22;55298;-36.624;-64.282;2023-01-23T03:00:45;25.90;52.10
59973;DHT22;55298;-36.624;-64.282;2023-01-23T03:03:15;25.90;52.60
59973;DHT22;55298;-36.624;-64.282;2023-01-23T03:05:42;26.10;52.70
59973;DHT22;55298;-36.624;-64.282;2023-01-23T03:08:11;26.00;52.20
59973;DHT22;55298;-36.624;-64.282;2023-01-23T03:10:41;26.00;51.10
59973;DHT22;55298;-36.624;-64.282;2023-01-23T03:13:14;26.00;51.50
59973;DHT22;55298;-36.624;-64.282;2023-01-23T03:15:42;26.00;50.50
59973;DHT22;55298;-36.624;-64.282;2023-01-23T03:18:10;26.00;50.50
59973;DHT22;55298;-36.624;-64.282;2023-01-23T03:20:40;26.10;50.50
59973;DHT22;55298;-36.624;-64.282;2023-01-23T03:23:09;26.10;49.50
59973;DHT22;55298;-36.624;-64.282;2023-01-23T03:25:41;26.10;49.70
59973;DHT22;55298;-36.624;-64.282;2023-01-23T03:28:09;26.10;50.10
59973;DHT22;55298;-36.624;-64.282;2023-01-23T03:30:57;26.10;50.00
59973;DHT22;55298;-36.624;-64.282;2023-01-23T03:33:25;26.10;50.00
59973;DHT22;55298;-36.624;-64.282;2023-01-23T03:35:53;26.10;49.80
59973;DHT22;55298;-36.624;-64.282;2023-01-23T03:38:21;26.10;50.00
59973;DHT22;55298;-36.624;-64.282;2023-01-23T03:40:49;26.10;50.40
59973;DHT22;55298;-36.624;-64.282;2023-01-23T03:43:31;26.10;50.30
59973;DHT22;55298;-36.624;-64.282;2023-01-23T03:45:59;26.00;50.70
59973;DHT22;55298;-36.624;-64.282;2023-01-23T03:48:29;25.90;50.90
59973;DHT22;55298;-36.624;-64.282;2023-01-23T03:50:57;25.90;50.90
59973;DHT22;55298;-36.624;-64.282;2023-01-23T03:53:26;25.90;50.80
59973;DHT22;55298;-36.624;-64.282;2023-01-23T03:55:54;25.80;51.00
59973;DHT22;55298;-36.624;-64.282;2023-01-23T03:58:22;25.80;51.20
59973;DHT22;55298;-36.624;-64.282;2023-01-23T04:00:50;25.80;50.90
59973;DHT22;55298;-36.624;-64.282;2023-01-23T04:03:17;25.70;51.30
59973;DHT22;55298;-36.624;-64.282;2023-01-23T04:05:45;25.70;51.90
59973;DHT22;55298;-36.624;-64.282;2023-01-23T04:08:13;25.60;52.30
59973;DHT22;55298;-36.624;-64.282;2023-01-23T04:10:41;25.60;51.70
59973;DHT22;55298;-36.624;-64.282;2023-01-23T04:13:09;25.60;51.80
59973;DHT22;55298;-36.624;-64.282;2023-01-23T04:15:37;25.60;52.30
59973;DHT22;55298;-36.624;-64.282;2023-01-23T04:18:07;25.50;52.10
59973;DHT22;55298;-36.624;-64.282;2023-01-23T04:20:37;25.50;52.90
59973;DHT22;55298;-36.624;-64.282;2023-01-23T04:23:06;25.50;52.60
59973;DHT22;55298;-36.624;-64.282;2023-01-23T04:25:34;25.50;52.50
59973;DHT22;55298;-36.624;-64.282;2023-01-23T04:28:02;25.50;51.90
59973;DHT22;55298;-36.624;-64.282;2023-01-23T04:30:30;25.50;52.80
59973;DHT22;55298;-36.624;-64.282;2023-01-23T04:32:59;25.50;52.20
59973;DHT22;55298;-36.624;-64.282;2023-01-23T04:35:27;25.50;51.70
59973;DHT22;55298;-36.624;-64.282;2023-01-23T04:37:56;25.50;51.50
59973;DHT22;55298;-36.624;-64.282;2023-01-23T04:40:24;25.50;51.90
59973;DHT22;55298;-36.624;-64.282;2023-01-23T04:42:52;25.50;52.10
59973;DHT22;55298;-36.624;-64.282;2023-01-23T04:45:20;25.40;51.70
59973;DHT22;55298;-36.624;-64.282;2023-01-23T04:47:49;25.50;52.10
59973;DHT22;55298;-36.624;-64.282;2023-01-23T04:50:17;25.40;51.60
59973;DHT22;55298;-36.624;-64.282;2023-01-23T04:52:45;25.40;51.40
59973;DHT22;55298;-36.624;-64.282;2023-01-23T04:55:13;25.40;52.00
59973;DHT22;55298;-36.624;-64.282;2023-01-23T04:57:41;25.40;52.10
59973;DHT22;55298;-36.624;-64.282;2023-01-23T05:00:10;25.30;51.70
59973;DHT22;55298;-36.624;-64.282;2023-01-23T05:02:39;25.30;52.20
59973;DHT22;55298;-36.624;-64.282;2023-01-23T05:05:08;25.20;52.10
59973;DHT22;55298;-36.624;-64.282;2023-01-23T05:07:38;25.20;51.90
59973;DHT22;55298;-36.624;-64.282;2023-01-23T05:10:09;25.20;51.70
59973;DHT22;55298;-36.624;-64.282;2023-01-23T05:12:38;25.10;51.70
59973;DHT22;55298;-36.624;-64.282;2023-01-23T05:15:07;25.10;51.60
59973;DHT22;55298;-36.624;-64.282;2023-01-23T05:17:35;25.10;51.50
59973;DHT22;55298;-36.624;-64.282;2023-01-23T05:20:03;25.10;51.20
59973;DHT22;55298;-36.624;-64.282;2023-01-23T05:22:32;25.10;51.00
59973;DHT22;55298;-36.624;-64.282;2023-01-23T05:25:00;25.10;50.80
59973;DHT22;55298;-36.624;-64.282;2023-01-23T05:27:28;25.00;51.10
59973;DHT22;55298;-36.624;-64.282;2023-01-23T05:29:56;25.00;51.20
59973;DHT22;55298;-36.624;-64.282;2023-01-23T05:32:23;24.90;51.30
59973;DHT22;55298;-36.624;-64.282;2023-01-23T05:34:52;24.90;51.40
59973;DHT22;55298;-36.624;-64.282;2023-01-23T05:37:20;24.90;51.60
59973;DHT22;55298;-36.624;-64.282;2023-01-23T05:39:51;24.80;51.30
59973;DHT22;55298;-36.624;-64.282;2023-01-23T05:42:19;24.80;51.50
59973;DHT22;55298;-36.624;-64.282;2023-01-23T05:44:46;24.80;51.80
59973;DHT22;55298;-36.624;-64.282;2023-01-23T05:47:15;24.80;51.80
59973;DHT22;55298;-36.624;-64.282;2023-01-23T05:49:43;24.70;51.90
59973;DHT22;55298;-36.624;-64.282;2023-01-23T05:52:12;24.70;52.10
59973;DHT22;55298;-36.624;-64.282;2023-01-23T05:54:41;24.70;52.10
59973;DHT22;55298;-36.624;-64.282;2023-01-23T05:57:09;24.70;52.20
59973;DHT22;55298;-36.624;-64.282;2023-01-23T05:59:37;24.60;52.30
59973;DHT22;55298;-36.624;-64.282;2023-01-23T06:02:05;24.60;52.90
59973;DHT22;55298;-36.624;-64.282;2023-01-23T06:04:34;24.60;53.30
59973;DHT22;55298;-36.624;-64.282;2023-01-23T06:07:03;24.50;53.70
59973;DHT22;55298;-36.624;-64.282;2023-01-23T06:09:32;24.50;53.80
59973;DHT22;55298;-36.624;-64.282;2023-01-23T06:12:00;24.40;54.30
59973;DHT22;55298;-36.624;-64.282;2023-01-23T06:14:28;24.40;54.60
59973;DHT22;55298;-36.624;-64.282;2023-01-23T06:16:56;24.30;55.10
59973;DHT22;55298;-36.624;-64.282;2023-01-23T06:19:24;24.20;54.90
59973;DHT22;55298;-36.624;-64.282;2023-01-23T06:21:52;24.20;55.90
59973;DHT22;55298;-36.624;-64.282;2023-01-23T06:24:20;24.10;56.50
59973;DHT22;55298;-36.624;-64.282;2023-01-23T06:26:47;24.00;56.80
59973;DHT22;55298;-36.624;-64.282;2023-01-23T06:29:15;24.00;57.00
59973;DHT22;55298;-36.624;-64.282;2023-01-23T06:31:43;23.90;56.90
59973;DHT22;55298;-36.624;-64.282;2023-01-23T06:34:13;23.80;57.30
59973;DHT22;55298;-36.624;-64.282;2023-01-23T06:36:41;23.90;58.30
59973;DHT22;55298;-36.624;-64.282;2023-01-23T06:39:12;23.70;58.90
59973;DHT22;55298;-36.624;-64.282;2023-01-23T06:41:42;23.70;59.80
59973;DHT22;55298;-36.624;-64.282;2023-01-23T06:44:11;23.60;59.90
59973;DHT22;55298;-36.624;-64.282;2023-01-23T06:46:40;23.60;60.50
59973;DHT22;55298;-36.624;-64.282;2023-01-23T06:49:08;23.50;61.90
59973;DHT22;55298;-36.624;-64.282;2023-01-23T06:51:36;23.50;61.60
59973;DHT22;55298;-36.624;-64.282;2023-01-23T06:54:04;23.40;62.40
59973;DHT22;55298;-36.624;-64.282;2023-01-23T06:56:32;23.40;61.30
59973;DHT22;55298;-36.624;-64.282;2023-01-23T06:59:00;23.40;62.10
59973;DHT22;55298;-36.624;-64.282;2023-01-23T07:01:28;23.30;61.70
59973;DHT22;55298;-36.624;-64.282;2023-01-23T07:03:57;23.30;62.10
59973;DHT22;55298;-36.624;-64.282;2023-01-23T07:06:25;23.30;65.00
59973;DHT22;55298;-36.624;-64.282;2023-01-23T07:08:54;23.30;64.50
59973;DHT22;55298;-36.624;-64.282;2023-01-23T07:11:22;23.20;63.90
59973;DHT22;55298;-36.624;-64.282;2023-01-23T07:13:51;23.20;64.40
59973;DHT22;55298;-36.624;-64.282;2023-01-23T07:16:20;23.20;62.60
59973;DHT22;55298;-36.624;-64.282;2023-01-23T07:18:48;23.20;62.80
59973;DHT22;55298;-36.624;-64.282;2023-01-23T07:21:16;23.10;64.30
59973;DHT22;55298;-36.624;-64.282;2023-01-23T07:23:44;23.10;65.00
59973;DHT22;55298;-36.624;-64.282;2023-01-23T07:26:12;23.10;64.60
59973;DHT22;55298;-36.624;-64.282;2023-01-23T07:28:40;23.00;64.50
59973;DHT22;55298;-36.624;-64.282;2023-01-23T07:31:08;23.00;65.50
59973;DHT22;55298;-36.624;-64.282;2023-01-23T07:33:38;23.10;65.50
59973;DHT22;55298;-36.624;-64.282;2023-01-23T07:36:06;23.00;65.20
59973;DHT22;55298;-36.624;-64.282;2023-01-23T07:38:35;22.90;65.40
59973;DHT22;55298;-36.624;-64.282;2023-01-23T07:41:03;22.90;65.40
59973;DHT22;55298;-36.624;-64.282;2023-01-23T07:43:31;22.90;66.00
59973;DHT22;55298;-36.624;-64.282;2023-01-23T07:45:59;22.80;67.40
59973;DHT22;55298;-36.624;-64.282;2023-01-23T07:48:28;22.70;67.60
59973;DHT22;55298;-36.624;-64.282;2023-01-23T07:51:01;22.70;67.10
59973;DHT22;55298;-36.624;-64.282;2023-01-23T07:53:31;22.70;67.70
59973;DHT22;55298;-36.624;-64.282;2023-01-23T07:56:02;22.60;68.60
59973;DHT22;55298;-36.624;-64.282;2023-01-23T07:58:31;22.40;68.80
59973;DHT22;55298;-36.624;-64.282;2023-01-23T08:01:05;22.50;68.50
59973;DHT22;55298;-36.624;-64.282;2023-01-23T08:03:33;22.40;68.80
59973;DHT22;55298;-36.624;-64.282;2023-01-23T08:06:01;22.30;69.20
59973;DHT22;55298;-36.624;-64.282;2023-01-23T08:08:29;22.30;69.30
59973;DHT22;55298;-36.624;-64.282;2023-01-23T08:10:57;22.30;69.70
59973;DHT22;55298;-36.624;-64.282;2023-01-23T08:13:25;22.20;70.30
59973;DHT22;55298;-36.624;-64.282;2023-01-23T08:15:52;22.20;70.00
59973;DHT22;55298;-36.624;-64.282;2023-01-23T08:18:21;22.10;70.50
59973;DHT22;55298;-36.624;-64.282;2023-01-23T08:20:58;22.10;71.60
59973;DHT22;55298;-36.624;-64.282;2023-01-23T08:23:29;22.00;71.90
59973;DHT22;55298;-36.624;-64.282;2023-01-23T08:25:59;22.00;72.60
59973;DHT22;55298;-36.624;-64.282;2023-01-23T08:28:29;21.90;73.40
59973;DHT22;55298;-36.624;-64.282;2023-01-23T08:31:03;21.80;73.50
59973;DHT22;55298;-36.624;-64.282;2023-01-23T08:33:34;21.80;73.90
59973;DHT22;55298;-36.624;-64.282;2023-01-23T08:36:02;21.70;74.80
59973;DHT22;55298;-36.624;-64.282;2023-01-23T08:38:31;21.60;75.60
59973;DHT22;55298;-36.624;-64.282;2023-01-23T08:41:01;21.60;75.90
59973;DHT22;55298;-36.624;-64.282;2023-01-23T08:43:29;21.50;77.40
59973;DHT22;55298;-36.624;-64.282;2023-01-23T08:45:58;21.40;78.20
59973;DHT22;55298;-36.624;-64.282;2023-01-23T08:48:27;21.40;79.50
59973;DHT22;55298;-36.624;-64.282;2023-01-23T08:51:03;21.30;80.20
59973;DHT22;55298;-36.624;-64.282;2023-01-23T08:53:34;21.30;80.80
59973;DHT22;55298;-36.624;-64.282;2023-01-23T08:56:06;21.20;82.00
59973;DHT22;55298;-36.624;-64.282;2023-01-23T08:58:36;21.10;82.40
59973;DHT22;55298;-36.624;-64.282;2023-01-23T09:01:09;21.10;83.40
59973;DHT22;55298;-36.624;-64.282;2023-01-23T09:03:38;21.00;84.30
59973;DHT22;55298;-36.624;-64.282;2023-01-23T09:06:06;21.00;84.40
59973;DHT22;55298;-36.624;-64.282;2023-01-23T09:08:35;21.00;85.80
59973;DHT22;55298;-36.624;-64.282;2023-01-23T09:11:06;20.90;86.50
59973;DHT22;55298;-36.624;-64.282;2023-01-23T09:13:36;20.90;87.00
59973;DHT22;55298;-36.624;-64.282;2023-01-23T09:16:04;20.90;88.00
59973;DHT22;55298;-36.624;-64.282;2023-01-23T09:18:35;20.80;89.10
59973;DHT22;55298;-36.624;-64.282;2023-01-23T09:21:08;20.90;90.10
59973;DHT22;55298;-36.624;-64.282;2023-01-23T09:23:37;20.80;90.40
59973;DHT22;55298;-36.624;-64.282;2023-01-23T09:26:08;20.80;90.70
59973;DHT22;55298;-36.624;-64.282;2023-01-23T09:28:39;20.80;90.70
59973;DHT22;55298;-36.624;-64.282;2023-01-23T09:31:11;20.80;91.20
59973;DHT22;55298;-36.624;-64.282;2023-01-23T09:33:39;20.70;91.60
59973;DHT22;55298;-36.624;-64.282;2023-01-23T09:38:35;20.60;92.70
59973;DHT22;55298;-36.624;-64.282;2023-01-23T09:41:17;20.60;92.90
59973;DHT22;55298;-36.624;-64.282;2023-01-23T09:43:56;20.60;93.30
59973;DHT22;55298;-36.624;-64.282;2023-01-23T09:46:35;20.60;93.80
59973;DHT22;55298;-36.624;-64.282;2023-01-23T09:49:13;20.60;94.10
59973;DHT22;55298;-36.624;-64.282;2023-01-23T09:51:54;20.50;94.50
59973;DHT22;55298;-36.624;-64.282;2023-01-23T09:54:40;20.50;94.90
59973;DHT22;55298;-36.624;-64.282;2023-01-23T09:57:14;20.40;95.20
59973;DHT22;55298;-36.624;-64.282;2023-01-23T09:59:50;20.50;95.30
59973;DHT22;55298;-36.624;-64.282;2023-01-23T10:02:22;20.50;95.50
59973;DHT22;55298;-36.624;-64.282;2023-01-23T10:04:53;20.60;95.70
59973;DHT22;55298;-36.624;-64.282;2023-01-23T10:10:57;20.70;95.90
59973;DHT22;55298;-36.624;-64.282;2023-01-23T10:13:40;20.70;95.80
59973;DHT22;55298;-36.624;-64.282;2023-01-23T10:22:28;21.00;95.40
59973;DHT22;55298;-36.624;-64.282;2023-01-23T10:27:50;21.30;94.70
59973;DHT22;55298;-36.624;-64.282;2023-01-23T10:30:28;21.50;94.30
59973;DHT22;55298;-36.624;-64.282;2023-01-23T10:33:07;21.60;93.60
59973;DHT22;55298;-36.624;-64.282;2023-01-23T10:41:13;22.00;91.80
59973;DHT22;55298;-36.624;-64.282;2023-01-23T10:43:49;22.20;91.20
59973;DHT22;55298;-36.624;-64.282;2023-01-23T10:46:22;22.30;90.80
59973;DHT22;55298;-36.624;-64.282;2023-01-23T10:48:54;22.40;90.40
59973;DHT22;55298;-36.624;-64.282;2023-01-23T10:51:48;22.60;90.10
59973;DHT22;55298;-36.624;-64.282;2023-01-23T10:54:24;22.70;89.00
59973;DHT22;55298;-36.624;-64.282;2023-01-23T10:57:22;22.90;87.30
59973;DHT22;55298;-36.624;-64.282;2023-01-23T10:59:58;23.00;86.20
59973;DHT22;55298;-36.624;-64.282;2023-01-23T11:02:33;23.20;84.40
59973;DHT22;55298;-36.624;-64.282;2023-01-23T11:07:41;23.50;82.70
59973;DHT22;55298;-36.624;-64.282;2023-01-23T11:10:23;23.80;81.10
59973;DHT22;55298;-36.624;-64.282;2023-01-23T11:12:56;24.60;77.90
59973;DHT22;55298;-36.624;-64.282;2023-01-23T11:15:29;25.80;69.60
59973;DHT22;55298;-36.624;-64.282;2023-01-23T11:18:00;26.40;64.40
59973;DHT22;55298;-36.624;-64.282;2023-01-23T11:20:34;26.60;62.20
59973;DHT22;55298;-36.624;-64.282;2023-01-23T11:23:16;26.80;61.10
59973;DHT22;55298;-36.624;-64.282;2023-01-23T11:25:52;27.60;58.70
59973;DHT22;55298;-36.624;-64.282;2023-01-23T11:28:32;28.70;55.40
59973;DHT22;55298;-36.624;-64.282;2023-01-23T11:31:17;29.40;52.80
59973;DHT22;55298;-36.624;-64.282;2023-01-23T11:33:57;30.30;50.30
59973;DHT22;55298;-36.624;-64.282;2023-01-23T11:39:28;31.60;46.90
59973;DHT22;55298;-36.624;-64.282;2023-01-23T11:42:01;31.80;44.40
59973;DHT22;55298;-36.624;-64.282;2023-01-23T11:44:32;32.00;44.80
59973;DHT22;55298;-36.624;-64.282;2023-01-23T11:47:13;32.50;43.90
59973;DHT22;55298;-36.624;-64.282;2023-01-23T11:50:11;32.60;42.00
59973;DHT22;55298;-36.624;-64.282;2023-01-23T11:53:04;32.60;41.20
59973;DHT22;55298;-36.624;-64.282;2023-01-23T11:55:50;32.60;42.10
59973;DHT22;55298;-36.624;-64.282;2023-01-23T11:59:10;32.60;41.30
59973;DHT22;55298;-36.624;-64.282;2023-01-23T12:01:57;32.40;41.30
59973;DHT22;55298;-36.624;-64.282;2023-01-23T12:04:50;32.60;41.90
59973;DHT22;55298;-36.624;-64.282;2023-01-23T12:07:24;32.70;41.80
59973;DHT22;55298;-36.624;-64.282;2023-01-23T12:10:15;32.80;40.70
59973;DHT22;55298;-36.624;-64.282;2023-01-23T12:13:05;33.10;41.40
59973;DHT22;55298;-36.624;-64.282;2023-01-23T12:18:42;34.30;39.30
59973;DHT22;55298;-36.624;-64.282;2023-01-23T12:21:18;34.60;37.60
59973;DHT22;55298;-36.624;-64.282;2023-01-23T12:26:39;34.00;37.80
59973;DHT22;55298;-36.624;-64.282;2023-01-23T12:29:29;34.30;38.20
59973;DHT22;55298;-36.624;-64.282;2023-01-23T12:38:10;34.90;38.10
59973;DHT22;55298;-36.624;-64.282;2023-01-23T12:43:44;35.40;36.60
59973;DHT22;55298;-36.624;-64.282;2023-01-23T12:46:31;35.40;37.60
59973;DHT22;55298;-36.624;-64.282;2023-01-23T12:52:01;34.80;37.80
59973;DHT22;55298;-36.624;-64.282;2023-01-23T12:54:41;34.90;37.70
59973;DHT22;55298;-36.624;-64.282;2023-01-23T12:57:12;35.40;37.10
59973;DHT22;55298;-36.624;-64.282;2023-01-23T13:00:16;35.90;37.10
59973;DHT22;55298;-36.624;-64.282;2023-01-23T13:09:12;36.70;34.50
59973;DHT22;55298;-36.624;-64.282;2023-01-23T13:11:55;36.90;34.20
59973;DHT22;55298;-36.624;-64.282;2023-01-23T13:14:39;37.00;34.00
59973;DHT22;55298;-36.624;-64.282;2023-01-23T13:20:23;37.00;34.50
59973;DHT22;55298;-36.624;-64.282;2023-01-23T13:23:27;37.10;34.30
59973;DHT22;55298;-36.624;-64.282;2023-01-23T13:28:47;36.70;33.80
59973;DHT22;55298;-36.624;-64.282;2023-01-23T13:31:39;36.70;33.40
59973;DHT22;55298;-36.624;-64.282;2023-01-23T13:34:33;37.10;33.80
59973;DHT22;55298;-36.624;-64.282;2023-01-23T13:37:32;37.40;32.30
59973;DHT22;55298;-36.624;-64.282;2023-01-23T13:40:17;37.80;32.20
59973;DHT22;55298;-36.624;-64.282;2023-01-23T13:42:48;38.10;31.10
59973;DHT22;55298;-36.624;-64.282;2023-01-23T13:45:24;37.90;30.80
59973;DHT22;55298;-36.624;-64.282;2023-01-23T13:48:28;37.80;31.30
59973;DHT22;55298;-36.624;-64.282;2023-01-23T13:51:15;38.20;31.60
59973;DHT22;55298;-36.624;-64.282;2023-01-23T13:53:47;38.40;30.40
59973;DHT22;55298;-36.624;-64.282;2023-01-23T13:56:26;38.60;30.80
59973;DHT22;55298;-36.624;-64.282;2023-01-23T13:59:17;38.90;30.00
59973;DHT22;55298;-36.624;-64.282;2023-01-23T14:01:50;39.20;30.00
59973;DHT22;55298;-36.624;-64.282;2023-01-23T14:04:31;39.10;29.30
59973;DHT22;55298;-36.624;-64.282;2023-01-23T14:07:24;39.20;29.20
59973;DHT22;55298;-36.624;-64.282;2023-01-23T14:10:11;39.30;28.70
59973;DHT22;55298;-36.624;-64.282;2023-01-23T14:12:48;39.10;28.80
59973;DHT22;55298;-36.624;-64.282;2023-01-23T14:15:26;39.00;28.90
59973;DHT22;55298;-36.624;-64.282;2023-01-23T14:18:28;39.20;29.50
59973;DHT22;55298;-36.624;-64.282;2023-01-23T14:21:24;39.50;28.50
59973;DHT22;55298;-36.624;-64.282;2023-01-23T14:23:56;39.50;27.80
59973;DHT22;55298;-36.624;-64.282;2023-01-23T14:26:30;39.40;28.20
59973;DHT22;55298;-36.624;-64.282;2023-01-23T14:29:00;39.10;28.70
59973;DHT22;55298;-36.624;-64.282;2023-01-23T14:31:33;39.10;28.10
59973;DHT22;55298;-36.624;-64.282;2023-01-23T14:34:11;38.80;28.00
59973;DHT22;55298;-36.624;-64.282;2023-01-23T14:36:46;38.90;28.60
59973;DHT22;55298;-36.624;-64.282;2023-01-23T14:39:26;38.70;28.40
59973;DHT22;55298;-36.624;-64.282;2023-01-23T14:41:57;38.80;28.40
59973;DHT22;55298;-36.624;-64.282;2023-01-23T14:44:44;38.90;28.30
59973;DHT22;55298;-36.624;-64.282;2023-01-23T14:47:25;38.80;28.20
59973;DHT22;55298;-36.624;-64.282;2023-01-23T14:49:55;38.90;28.90
59973;DHT22;55298;-36.624;-64.282;2023-01-23T14:52:28;38.80;29.10
59973;DHT22;55298;-36.624;-64.282;2023-01-23T14:54:58;38.70;29.40
59973;DHT22;55298;-36.624;-64.282;2023-01-23T14:57:28;38.60;29.10
59973;DHT22;55298;-36.624;-64.282;2023-01-23T14:59:59;38.80;28.90
59973;DHT22;55298;-36.624;-64.282;2023-01-23T15:02:40;39.00;29.00
59973;DHT22;55298;-36.624;-64.282;2023-01-23T15:05:23;38.90;27.80
59973;DHT22;55298;-36.624;-64.282;2023-01-23T15:08:05;38.80;27.50
59973;DHT22;55298;-36.624;-64.282;2023-01-23T15:10:49;38.90;27.90
59973;DHT22;55298;-36.624;-64.282;2023-01-23T15:13:24;39.30;27.10
59973;DHT22;55298;-36.624;-64.282;2023-01-23T15:15:58;39.30;26.80
59973;DHT22;55298;-36.624;-64.282;2023-01-23T15:24:38;38.70;26.90
59973;DHT22;55298;-36.624;-64.282;2023-01-23T15:27:23;38.90;27.30
59973;DHT22;55298;-36.624;-64.282;2023-01-23T15:30:26;38.80;26.10
59973;DHT22;55298;-36.624;-64.282;2023-01-23T15:32:40;38.50;27.10
59973;DHT22;55298;-36.624;-64.282;2023-01-23T15:35:16;38.60;27.80
59973;DHT22;55298;-36.624;-64.282;2023-01-23T15:37:47;38.50;27.00
59973;DHT22;55298;-36.624;-64.282;2023-01-23T15:40:18;38.60;27.20
59973;DHT22;55298;-36.624;-64.282;2023-01-23T15:43:05;38.60;26.70
59973;DHT22;55298;-36.624;-64.282;2023-01-23T15:45:35;38.50;26.70
59973;DHT22;55298;-36.624;-64.282;2023-01-23T15:48:07;38.30;26.90
59973;DHT22;55298;-36.624;-64.282;2023-01-23T15:50:36;38.40;27.30
59973;DHT22;55298;-36.624;-64.282;2023-01-23T15:53:11;38.50;27.00
59973;DHT22;55298;-36.624;-64.282;2023-01-23T15:55:41;38.50;26.80
59973;DHT22;55298;-36.624;-64.282;2023-01-23T15:58:13;38.20;26.60
59973;DHT22;55298;-36.624;-64.282;2023-01-23T16:00:41;37.90;27.40
59973;DHT22;55298;-36.624;-64.282;2023-01-23T16:03:10;37.60;27.40
59973;DHT22;55298;-36.624;-64.282;2023-01-23T16:05:41;37.30;28.50
59973;DHT22;55298;-36.624;-64.282;2023-01-23T16:08:19;36.80;28.70
59973;DHT22;55298;-36.624;-64.282;2023-01-23T16:10:49;36.50;29.20
59973;DHT22;55298;-36.624;-64.282;2023-01-23T16:13:21;36.60;29.40
59973;DHT22;55298;-36.624;-64.282;2023-01-23T16:15:49;36.80;29.40
59973;DHT22;55298;-36.624;-64.282;2023-01-23T16:18:17;37.00;29.60
59973;DHT22;55298;-36.624;-64.282;2023-01-23T16:20:47;36.90;29.30
59973;DHT22;55298;-36.624;-64.282;2023-01-23T16:23:21;36.90;29.00
59973;DHT22;55298;-36.624;-64.282;2023-01-23T16:25:50;36.90;29.00